createdAt,value
2019-04-21T00:00:22.795Z,65.84
2019-04-21T00:01:22.368Z,65.93
2019-04-21T00:02:30.155Z,66.79
2019-04-21T00:03:30.378Z,66.89
2019-04-21T00:04:33.245Z,66.31
2019-04-21T00:05:38.326Z,66.22
2019-04-21T00:06:40.804Z,66.31
2019-04-21T00:07:49.133Z,66.60
2019-04-21T00:08:41.577Z,67.18
2019-04-21T00:09:50.561Z,67.08
2019-04-21T00:10:40.588Z,67.27
2019-04-21T00:11:41.342Z,67.18
2019-04-21T00:12:41.881Z,68.04
2019-04-21T00:13:33.159Z,67.55
2019-04-21T00:14:35.052Z,68.19
2019-04-21T00:15:29.817Z,67.52
2019-04-21T00:16:33.092Z,67.91
2019-04-21T00:17:24.904Z,68.29
2019-04-21T00:18:23.288Z,67.81
2019-04-21T00:19:28.051Z,68.29
2019-04-21T00:20:32.310Z,68.57
2019-04-21T00:21:29.214Z,69.24
2019-04-21T00:22:36.719Z,69.43
2019-04-21T00:23:43.686Z,69.53
2019-04-21T00:24:37.477Z,69.24
2019-04-21T00:25:33.716Z,69.34
2019-04-21T00:26:36.365Z,68.48
2019-04-21T00:27:39.669Z,68.67
2019-04-21T00:28:47.243Z,69.24
2019-04-21T00:30:44.344Z,69.05
2019-04-21T00:31:38.318Z,68.96
2019-04-21T00:32:35.257Z,69.24
2019-04-21T00:33:28.017Z,69.05
2019-04-21T00:34:21.929Z,69.15
2019-04-21T00:35:25.818Z,69.49
2019-04-21T00:36:27.824Z,69.59
2019-04-21T00:37:43.459Z,69.97
2019-04-21T00:38:56.273Z,70.36
2019-04-21T00:39:49.329Z,69.87
2019-04-21T00:40:45.704Z,70.73
2019-04-21T00:41:47.063Z,70.45
2019-04-21T00:42:38.914Z,70.26
2019-04-21T00:43:37.848Z,70.36
2019-04-21T00:44:35.583Z,71.27
2019-04-21T00:45:37.087Z,71.94
2019-04-21T00:46:34.777Z,72.71
2019-04-21T00:47:39.064Z,72.32
2019-04-21T00:48:45.658Z,71.84
2019-04-21T00:49:36.919Z,72.51
2019-04-21T00:50:51.470Z,72.13
2019-04-21T00:52:51.297Z,72.23
2019-04-21T00:53:51.184Z,72.32
2019-04-21T00:54:49.851Z,72.89
2019-04-21T00:55:45.917Z,72.61
2019-04-21T00:56:54.145Z,72.03
2019-04-21T00:57:46.860Z,72.32
2019-04-21T00:58:47.960Z,72.61
2019-04-21T00:59:48.399Z,72.23
2019-04-21T01:00:49.578Z,73.24
2019-04-21T01:01:44.682Z,73.62
2019-04-21T01:03:46.085Z,72.38
2019-04-21T01:04:42.824Z,72.86
2019-04-21T01:05:46.928Z,72.57
2019-04-21T01:06:43.483Z,73.24
2019-04-21T01:07:42.260Z,73.33
2019-04-21T01:08:42.772Z,73.43
2019-04-21T01:09:39.861Z,73.14
2019-04-21T01:10:34.924Z,72.19
2019-04-21T01:11:44.824Z,72.57
2019-04-21T01:12:44.435Z,72.76
2019-04-21T01:13:46.828Z,73.05
2019-04-21T01:14:49.652Z,72.32
2019-04-21T01:15:49.048Z,68.79
2019-04-21T01:16:48.548Z,68.70
2019-04-21T01:18:44.307Z,72.00
2019-04-21T01:19:39.786Z,72.57
2019-04-21T01:20:21.732Z,73.05
2019-04-21T01:21:21.724Z,72.23
2019-04-21T01:22:21.717Z,72.13
2019-04-21T01:23:21.725Z,72.51
2019-04-21T01:24:28.836Z,73.18
2019-04-21T01:25:30.279Z,73.37
2019-04-21T01:26:37.176Z,72.99
2019-04-21T01:27:43.883Z,73.33
2019-04-21T01:28:39.971Z,73.43
2019-04-21T01:29:51.432Z,73.62
2019-04-21T01:30:41.478Z,73.33
2019-04-21T01:31:37.582Z,73.81
2019-04-21T01:32:43.895Z,73.33
2019-04-21T01:33:46.106Z,73.81
2019-04-21T01:34:39.618Z,73.18
2019-04-21T01:35:44.299Z,72.67
2019-04-21T01:36:41.313Z,72.48
2019-04-21T01:37:44.033Z,72.48
2019-04-21T01:38:48.119Z,71.91
2019-04-21T01:39:51.342Z,72.09
2019-04-21T01:41:02.221Z,72.09
2019-04-21T01:41:49.458Z,72.00
2019-04-21T01:42:45.866Z,72.19
2019-04-21T01:43:40.397Z,72.28
2019-04-21T01:44:44.987Z,72.38
2019-04-21T01:45:41.649Z,72.48
2019-04-21T01:46:33.916Z,72.25
2019-04-21T01:47:40.494Z,71.87
2019-04-21T01:48:39.076Z,73.11
2019-04-21T01:49:31.827Z,73.30
2019-04-21T01:50:42.666Z,73.21
2019-04-21T01:51:45.450Z,71.72
2019-04-21T01:52:57.361Z,71.62
2019-04-21T01:53:45.720Z,72.34
2019-04-21T01:54:43.144Z,71.39
2019-04-21T01:55:43.155Z,69.04
2019-04-21T01:56:40.475Z,68.18
2019-04-21T01:57:37.454Z,67.83
2019-04-21T01:58:35.764Z,66.88
2019-04-21T01:59:34.986Z,67.61
2019-04-21T02:00:39.389Z,68.18
2019-04-21T02:01:39.238Z,67.99
2019-04-21T02:02:43.724Z,68.57
2019-04-21T02:03:53.201Z,67.80
2019-04-21T02:04:52.567Z,68.66
2019-04-21T02:05:48.086Z,69.52
2019-04-21T02:06:45.558Z,68.76
2019-04-21T02:07:43.025Z,67.83
2019-04-21T02:08:36.416Z,66.60
2019-04-21T02:09:46.043Z,66.02
2019-04-21T02:10:46.195Z,66.50
2019-04-21T02:11:43.193Z,66.31
2019-04-21T02:12:46.004Z,67.14
2019-04-21T02:14:51.513Z,68.18
2019-04-21T02:15:46.971Z,69.33
2019-04-21T02:16:40.715Z,70.00
2019-04-21T02:17:45.309Z,71.43
2019-04-21T02:18:40.751Z,69.08
2019-04-21T02:19:39.588Z,65.36
2019-04-21T02:20:32.686Z,64.15
2019-04-21T02:21:34.183Z,64.05
2019-04-21T02:22:59.156Z,63.76
2019-04-21T02:23:46.765Z,65.74
2019-04-21T02:24:49.357Z,67.93
2019-04-21T02:25:44.226Z,69.23
2019-04-21T02:26:44.390Z,69.08
2019-04-21T02:27:42.869Z,69.62
2019-04-21T02:28:49.838Z,69.90
2019-04-21T02:29:48.717Z,70.19
2019-04-21T02:31:02.474Z,70.19
2019-04-21T02:34:59.960Z,70.28
2019-04-21T02:38:57.805Z,69.04
2019-04-21T02:39:56.729Z,69.81
2019-04-21T02:42:15.037Z,72.34
2019-04-21T02:43:02.734Z,73.39
2019-04-21T02:43:54.422Z,71.23
2019-04-21T02:44:52.130Z,69.90
2019-04-21T02:45:58.594Z,70.76
2019-04-21T02:47:53.456Z,70.82
2019-04-21T02:48:56.436Z,71.11
2019-04-21T02:49:59.624Z,72.16
2019-04-21T02:50:45.113Z,72.25
2019-04-21T02:51:54.431Z,71.96
2019-04-21T02:52:54.017Z,72.25
2019-04-21T02:54:22.841Z,72.63
2019-04-21T02:55:52.622Z,72.16
2019-04-21T02:57:01.297Z,73.30
2019-04-21T02:57:59.529Z,73.30
2019-04-21T03:00:04.136Z,74.25
2019-04-21T03:01:14.485Z,74.06
2019-04-21T03:01:56.638Z,74.06
2019-04-21T03:03:06.993Z,75.01
2019-04-21T03:03:55.035Z,74.92
2019-04-21T03:04:53.222Z,75.11
2019-04-21T03:05:50.921Z,75.49
2019-04-21T03:07:57.005Z,74.25
2019-04-21T03:08:58.810Z,73.77
2019-04-21T03:10:54.191Z,73.77
2019-04-21T03:11:59.748Z,74.16
2019-04-21T03:12:45.854Z,74.21
2019-04-21T03:14:03.018Z,75.45
2019-04-21T03:16:03.107Z,76.12
2019-04-21T03:16:43.442Z,76.40
2019-04-21T03:18:01.816Z,76.21
2019-04-21T03:19:06.782Z,76.59
2019-04-21T03:21:00.689Z,76.12
2019-04-21T03:21:57.643Z,76.03
2019-04-21T03:22:57.634Z,76.31
2019-04-21T03:23:53.638Z,76.31
2019-04-21T03:25:52.277Z,75.93
2019-04-21T03:27:00.982Z,76.31
2019-04-21T03:28:00.750Z,76.31
2019-04-21T03:29:57.135Z,75.93
2019-04-21T03:37:58.516Z,76.12
2019-04-21T03:38:47.422Z,75.26
2019-04-21T03:40:47.116Z,75.45
2019-04-21T03:42:00.184Z,75.36
2019-04-21T03:42:52.985Z,75.84
2019-04-21T03:43:50.247Z,76.21
2019-04-21T03:47:14.631Z,76.69
2019-04-21T03:47:53.451Z,76.98
2019-04-21T03:48:57.133Z,76.94
2019-04-21T03:50:02.451Z,76.46
2019-04-21T03:50:56.410Z,77.03
2019-04-21T03:51:56.919Z,76.94
2019-04-21T03:52:53.314Z,76.84
2019-04-21T03:53:49.732Z,77.42
2019-04-21T03:54:57.747Z,77.70
2019-04-21T03:56:02.785Z,77.98
2019-04-21T03:57:11.242Z,77.51
2019-04-21T03:58:06.518Z,76.84
2019-04-21T03:59:55.632Z,77.42
2019-04-21T04:01:00.267Z,77.61
2019-04-21T04:02:08.230Z,77.89
2019-04-21T04:02:57.164Z,77.32
2019-04-21T04:04:12.181Z,77.70
2019-04-21T04:04:53.011Z,77.70
2019-04-21T04:06:56.553Z,77.89
2019-04-21T04:08:09.056Z,78.37
2019-04-21T04:28:52.400Z,79.75
2019-04-21T04:29:35.570Z,79.38
2019-04-21T04:31:37.669Z,79.66
2019-04-21T04:32:36.774Z,79.66
2019-04-21T04:35:45.810Z,79.57
2019-04-21T04:36:52.634Z,79.28
2019-04-21T04:37:36.746Z,78.61
2019-04-21T04:38:39.578Z,78.71
2019-04-21T04:39:48.687Z,78.90
2019-04-21T04:40:34.759Z,78.90
2019-04-21T04:42:27.214Z,78.94
2019-04-21T04:43:55.490Z,79.41
2019-04-21T04:46:44.237Z,78.94
2019-04-21T04:47:34.984Z,78.94
2019-04-21T04:48:37.441Z,79.60
2019-04-21T04:50:45.447Z,80.33
2019-04-21T04:51:44.372Z,80.08
2019-04-21T04:52:41.959Z,80.55
2019-04-21T04:53:42.689Z,80.65
2019-04-21T04:55:33.748Z,79.80
2019-04-21T04:56:40.521Z,79.70
2019-04-21T04:59:42.671Z,79.75
2019-04-21T05:03:43.803Z,79.51
2019-04-21T05:05:36.307Z,78.31
2019-04-21T05:06:42.654Z,78.12
2019-04-21T05:07:52.415Z,77.83
2019-04-21T05:08:42.252Z,77.55
2019-04-21T05:09:31.603Z,77.74
2019-04-21T05:10:51.493Z,77.11
2019-04-21T05:12:29.270Z,76.44
2019-04-21T05:13:35.145Z,75.87
2019-04-21T05:14:30.144Z,75.59
2019-04-21T05:15:23.911Z,75.30
2019-04-21T05:16:41.031Z,75.34
2019-04-21T05:18:35.190Z,73.62
2019-04-21T05:19:39.022Z,73.08
2019-04-21T05:20:24.963Z,72.03
2019-04-21T05:21:34.653Z,71.08
2019-04-21T05:22:30.965Z,69.78
2019-04-21T05:23:24.410Z,67.71
2019-04-21T05:24:24.058Z,65.77
2019-04-21T05:25:22.334Z,63.00
2019-04-21T05:26:17.104Z,59.42
2019-04-21T05:27:21.890Z,56.12
2019-04-21T05:28:15.154Z,54.39
2019-04-21T05:29:18.407Z,54.04
2019-04-21T05:30:33.915Z,53.01
2019-04-21T05:31:27.006Z,52.05
2019-04-21T05:32:29.776Z,51.69
2019-04-21T05:34:27.084Z,50.18
2019-04-21T05:35:26.786Z,48.57
2019-04-21T05:36:20.767Z,48.59
2019-04-21T05:37:24.460Z,48.02
2019-04-21T05:38:21.851Z,48.02
2019-04-21T05:39:18.444Z,47.53
2019-04-21T05:40:19.858Z,47.63
2019-04-21T05:41:17.558Z,48.23
2019-04-21T05:42:23.224Z,47.53
2019-04-21T05:43:28.370Z,47.44
2019-04-21T05:44:29.473Z,48.47
2019-04-21T05:45:30.006Z,51.28
2019-04-21T05:46:25.171Z,53.85
2019-04-21T05:48:31.893Z,54.42
2019-04-21T05:49:21.979Z,53.97
2019-04-21T05:50:24.654Z,52.39
2019-04-21T05:51:25.583Z,50.35
2019-04-21T05:52:19.850Z,46.93
2019-04-21T05:53:34.376Z,45.20
2019-04-21T05:54:30.036Z,43.67
2019-04-21T05:55:34.200Z,43.38
2019-04-21T05:56:32.081Z,43.31
2019-04-21T05:57:25.370Z,42.27
2019-04-21T05:58:27.090Z,41.20
2019-04-21T05:59:26.269Z,40.65
2019-04-21T06:00:39.373Z,39.87
2019-04-21T06:01:33.437Z,39.39
2019-04-21T06:02:42.022Z,40.82
2019-04-21T06:03:30.655Z,41.50
2019-04-21T06:04:41.514Z,40.57
2019-04-21T06:06:34.064Z,39.97
2019-04-21T06:07:28.890Z,39.37
2019-04-21T06:08:25.688Z,39.76
2019-04-21T06:09:29.709Z,40.63
2019-04-21T06:10:27.391Z,40.84
2019-04-21T06:11:28.131Z,39.97
2019-04-21T06:12:29.909Z,39.80
2019-04-21T06:13:37.877Z,39.61
2019-04-21T06:14:30.464Z,38.64
2019-04-21T06:15:34.088Z,38.74
2019-04-21T06:16:29.353Z,38.41
2019-04-21T06:17:32.997Z,39.54
2019-04-21T06:18:34.620Z,39.20
2019-04-21T06:19:30.960Z,39.66
2019-04-21T06:20:27.136Z,41.36
2019-04-21T06:21:26.376Z,43.80
2019-04-21T06:22:23.909Z,46.14
2019-04-21T06:23:25.084Z,47.46
2019-04-21T06:24:30.960Z,49.17
2019-04-21T06:26:51.700Z,51.04
2019-04-21T06:27:32.466Z,52.09
2019-04-21T06:28:35.444Z,52.19
2019-04-21T06:29:30.029Z,52.93
2019-04-21T06:30:35.880Z,54.15
2019-04-21T06:31:47.122Z,53.79
2019-04-21T06:32:46.020Z,54.24
2019-04-21T06:33:32.230Z,54.34
2019-04-21T06:34:37.815Z,55.11
2019-04-21T06:38:36.044Z,54.63
2019-04-21T06:39:31.811Z,55.49
2019-04-21T06:40:30.571Z,55.27
2019-04-21T06:41:32.657Z,55.65
2019-04-21T06:42:26.970Z,56.23
2019-04-21T06:44:29.618Z,56.39
2019-04-21T06:46:30.685Z,57.35
2019-04-21T06:47:33.598Z,56.46
2019-04-21T06:48:32.697Z,57.04
2019-04-21T06:49:28.130Z,57.48
2019-04-21T06:50:35.235Z,59.05
2019-04-21T06:51:27.360Z,58.86
2019-04-21T06:52:46.532Z,58.50
2019-04-21T06:53:29.656Z,59.05
2019-04-21T06:54:30.647Z,58.50
2019-04-21T06:55:31.175Z,57.70
2019-04-21T06:56:30.976Z,57.80
2019-04-21T06:57:29.230Z,57.13
2019-04-21T06:58:27.831Z,57.68
2019-04-21T06:59:27.496Z,58.06
2019-04-21T07:00:24.705Z,58.34
2019-04-21T07:01:30.851Z,58.47
2019-04-21T07:03:29.532Z,58.73
2019-04-21T07:05:26.436Z,58.56
2019-04-21T07:06:29.512Z,58.44
2019-04-21T07:07:26.383Z,58.66
2019-04-21T07:08:34.585Z,58.44
2019-04-21T07:09:30.025Z,58.34
2019-04-21T07:10:30.492Z,58.83
2019-04-21T07:11:27.073Z,58.83
2019-04-21T07:12:23.191Z,58.73
2019-04-21T07:13:27.142Z,58.83
2019-04-21T07:15:30.448Z,59.62
2019-04-21T07:16:25.167Z,59.33
2019-04-21T07:17:29.365Z,58.28
2019-04-21T07:18:28.652Z,58.56
2019-04-21T07:19:35.994Z,59.36
2019-04-21T07:20:21.534Z,58.69
2019-04-21T07:21:29.376Z,57.51
2019-04-21T07:22:33.750Z,58.37
2019-04-21T07:23:32.247Z,58.18
2019-04-21T07:25:28.407Z,58.28
2019-04-21T07:26:25.090Z,58.31
2019-04-21T07:27:29.231Z,58.31
2019-04-21T07:28:25.971Z,58.12
2019-04-21T07:29:32.570Z,57.35
2019-04-21T07:30:31.470Z,57.45
2019-04-21T07:31:31.887Z,58.31
2019-04-21T07:32:26.468Z,58.31
2019-04-21T07:34:36.242Z,56.97
2019-04-21T07:35:27.016Z,56.59
2019-04-21T07:36:37.955Z,56.49
2019-04-21T07:37:23.975Z,56.97
2019-04-21T07:38:21.192Z,56.20
2019-04-21T07:39:25.548Z,57.45
2019-04-21T07:40:19.283Z,57.64
2019-04-21T07:41:18.343Z,56.04
2019-04-21T07:42:17.454Z,55.24
2019-04-21T07:43:20.763Z,54.86
2019-04-21T07:44:19.604Z,55.53
2019-04-21T07:45:19.489Z,56.68
2019-04-21T07:46:21.388Z,56.39
2019-04-21T07:47:23.076Z,56.71
2019-04-21T07:48:24.938Z,56.30
2019-04-21T07:49:25.264Z,55.94
2019-04-21T07:50:27.451Z,55.36
2019-04-21T07:51:27.181Z,56.71
2019-04-21T07:52:28.382Z,56.13
2019-04-21T07:53:30.291Z,55.94
2019-04-21T07:54:34.216Z,55.36
2019-04-21T07:56:09.717Z,55.27
2019-04-21T07:57:18.810Z,56.13
2019-04-21T07:58:26.240Z,55.85
2019-04-21T07:59:34.191Z,54.50
2019-04-21T08:00:33.489Z,54.32
2019-04-21T08:01:24.360Z,54.50
2019-04-21T08:02:28.147Z,54.60
2019-04-21T08:03:30.317Z,54.41
2019-04-21T08:04:44.089Z,55.27
2019-04-21T08:05:27.997Z,54.70
2019-04-21T08:06:28.218Z,55.18
2019-04-21T08:07:30.606Z,56.54
2019-04-21T08:08:23.407Z,56.74
2019-04-21T08:09:29.243Z,54.24
2019-04-21T08:10:22.383Z,54.15
2019-04-21T08:11:23.566Z,54.53
2019-04-21T08:12:19.718Z,53.48
2019-04-21T08:13:34.554Z,53.28
2019-04-21T08:14:24.272Z,53.28
2019-04-21T08:15:29.108Z,54.63
2019-04-21T08:16:28.638Z,53.77
2019-04-21T08:17:28.493Z,54.34
2019-04-21T08:18:28.731Z,52.91
2019-04-21T08:19:26.815Z,53.09
2019-04-21T08:20:25.503Z,53.67
2019-04-21T08:21:22.025Z,52.42
2019-04-21T08:22:25.729Z,53.28
2019-04-21T08:23:25.602Z,53.38
2019-04-21T08:24:20.050Z,54.46
2019-04-21T08:25:27.277Z,52.81
2019-04-21T08:26:24.816Z,53.03
2019-04-21T08:27:32.092Z,53.31
2019-04-21T08:28:26.514Z,53.79
2019-04-21T08:29:33.386Z,54.66
2019-04-21T08:30:29.158Z,53.79
2019-04-21T08:31:35.556Z,53.12
2019-04-21T08:32:36.379Z,52.45
2019-04-21T08:33:32.603Z,52.93
2019-04-21T08:34:29.915Z,52.64
2019-04-21T08:36:38.406Z,54.21
2019-04-21T08:37:29.531Z,52.86
2019-04-21T08:38:22.005Z,52.86
2019-04-21T08:39:33.206Z,51.14
2019-04-21T08:41:28.130Z,51.61
2019-04-21T08:42:25.373Z,51.90
2019-04-21T08:43:35.513Z,52.19
2019-04-21T08:44:25.641Z,52.28
2019-04-21T08:45:27.926Z,51.42
2019-04-21T08:46:25.370Z,50.65
2019-04-21T08:47:30.037Z,50.46
2019-04-21T08:48:22.598Z,51.14
2019-04-21T08:49:23.441Z,51.42
2019-04-21T08:50:28.031Z,51.35
2019-04-21T08:51:39.703Z,51.73
2019-04-21T08:53:27.375Z,51.25
2019-04-21T08:55:30.598Z,50.29
2019-04-21T08:56:31.983Z,51.16
2019-04-21T08:57:39.618Z,50.39
2019-04-21T08:58:31.007Z,49.82
2019-04-21T08:59:25.509Z,50.49
2019-04-21T09:00:27.831Z,48.76
2019-04-21T09:01:30.404Z,49.52
2019-04-21T09:02:29.481Z,51.25
2019-04-21T09:03:21.638Z,49.43
2019-04-21T09:04:26.211Z,50.90
2019-04-21T09:05:26.557Z,49.55
2019-04-21T09:06:40.371Z,49.55
2019-04-21T09:07:28.429Z,49.07
2019-04-21T09:08:24.814Z,48.09
2019-04-21T09:09:27.876Z,48.69
2019-04-21T09:10:21.993Z,48.79
2019-04-21T09:11:22.572Z,49.55
2019-04-21T09:12:24.399Z,48.69
2019-04-21T09:13:24.747Z,48.79
2019-04-21T09:14:28.856Z,49.26
2019-04-21T09:15:21.620Z,49.46
2019-04-21T09:16:20.391Z,49.46
2019-04-21T09:17:16.364Z,48.40
2019-04-21T09:18:18.813Z,48.11
2019-04-21T09:19:34.070Z,48.97
2019-04-21T09:20:25.096Z,48.02
2019-04-21T09:21:28.550Z,48.52
2019-04-21T09:22:28.362Z,48.43
2019-04-21T09:23:19.284Z,48.52
2019-04-21T09:24:24.732Z,47.66
2019-04-21T09:25:26.926Z,47.53
2019-04-21T09:26:28.298Z,49.00
2019-04-21T09:27:20.689Z,49.48
2019-04-21T09:28:20.068Z,47.46
2019-04-21T09:29:17.452Z,47.36
2019-04-21T09:30:06.553Z,47.56
2019-04-21T09:31:05.288Z,47.00
2019-04-21T09:32:09.659Z,47.68
2019-04-21T09:33:05.700Z,47.10
2019-04-21T09:34:06.626Z,46.59
2019-04-21T09:35:10.312Z,47.66
2019-04-21T09:36:07.919Z,47.20
2019-04-21T09:37:20.327Z,47.49
2019-04-21T09:38:17.122Z,46.81
2019-04-21T09:39:11.230Z,46.62
2019-04-21T09:40:04.949Z,46.14
2019-04-21T09:41:06.757Z,46.72
2019-04-21T09:42:05.111Z,47.89
2019-04-21T09:43:08.507Z,46.36
2019-04-21T09:44:09.925Z,45.68
2019-04-21T09:45:06.592Z,45.97
2019-04-21T09:46:04.169Z,46.06
2019-04-21T09:47:06.944Z,46.16
2019-04-21T09:48:09.922Z,46.06
2019-04-21T09:49:09.501Z,45.01
2019-04-21T09:50:05.204Z,44.72
2019-04-21T09:51:04.194Z,45.10
2019-04-21T09:52:08.898Z,46.06
2019-04-21T09:53:14.621Z,45.20
2019-04-21T09:54:08.813Z,46.16
2019-04-21T09:55:10.009Z,44.34
2019-04-21T09:56:07.949Z,44.34
2019-04-21T09:57:10.595Z,44.91
2019-04-21T09:58:15.176Z,45.03
2019-04-21T09:59:14.907Z,43.78
2019-04-21T10:00:12.145Z,42.33
2019-04-21T10:01:17.504Z,41.86
2019-04-21T10:02:11.638Z,43.90
2019-04-21T10:03:08.110Z,43.32
2019-04-21T10:04:05.691Z,43.20
2019-04-21T10:05:05.271Z,44.09
2019-04-21T10:06:04.467Z,42.74
2019-04-21T10:07:04.582Z,42.93
2019-04-21T10:08:05.780Z,40.43
2019-04-21T10:09:06.272Z,42.46
2019-04-21T10:10:04.238Z,42.74
2019-04-21T10:11:05.353Z,42.76
2019-04-21T10:12:05.208Z,39.95
2019-04-21T10:13:05.054Z,39.29
2019-04-21T10:14:05.246Z,38.60
2019-04-21T10:15:04.309Z,38.60
2019-04-21T10:16:05.176Z,39.66
2019-04-21T10:17:04.739Z,40.72
2019-04-21T10:18:06.264Z,41.01
2019-04-21T10:19:04.680Z,41.20
2019-04-21T10:20:05.149Z,41.03
2019-04-21T10:21:05.442Z,40.53
2019-04-21T10:22:05.878Z,41.51
2019-04-21T10:23:05.086Z,41.22
2019-04-21T10:24:04.313Z,41.32
2019-04-21T10:25:04.720Z,40.55
2019-04-21T10:26:04.319Z,38.54
2019-04-21T10:27:06.895Z,37.19
2019-04-21T10:28:05.257Z,38.16
2019-04-21T10:29:12.849Z,38.62
2019-04-21T10:30:05.450Z,38.14
2019-04-21T10:31:04.861Z,38.35
2019-04-21T10:32:05.774Z,36.71
2019-04-21T10:33:04.223Z,35.65
2019-04-21T10:34:05.303Z,36.61
2019-04-21T10:35:05.336Z,37.39
2019-04-21T10:36:04.628Z,37.01
2019-04-21T10:37:04.941Z,37.77
2019-04-21T10:38:16.786Z,36.52
2019-04-21T10:39:04.318Z,36.35
2019-04-21T10:40:05.381Z,36.91
2019-04-21T10:41:05.388Z,36.04
2019-04-21T10:42:05.576Z,36.23
2019-04-21T10:43:04.275Z,36.83
2019-04-21T10:44:05.069Z,35.67
2019-04-21T10:45:05.168Z,35.38
2019-04-21T10:46:04.509Z,34.22
2019-04-21T10:47:04.783Z,35.77
2019-04-21T10:48:05.155Z,34.42
2019-04-21T10:49:04.455Z,34.03
2019-04-21T10:50:04.516Z,33.65
2019-04-21T10:51:05.361Z,34.52
2019-04-21T10:52:04.690Z,34.42
2019-04-21T10:53:04.961Z,33.94
2019-04-21T10:54:04.405Z,34.03
2019-04-21T10:55:24.136Z,34.61
2019-04-21T10:56:15.407Z,33.55
2019-04-21T10:57:04.320Z,34.22
2019-04-21T10:58:04.574Z,35.58
2019-04-21T10:59:04.530Z,35.21
2019-04-21T11:00:07.468Z,35.21
2019-04-21T11:01:04.307Z,35.21
2019-04-21T11:02:05.140Z,34.82
2019-04-21T11:03:04.731Z,32.99
2019-04-21T11:04:07.443Z,32.41
2019-04-21T11:05:04.827Z,32.31
2019-04-21T11:06:04.306Z,32.41
2019-04-21T11:07:10.714Z,29.13
2019-04-21T11:08:12.158Z,30.29
2019-04-21T11:09:05.460Z,32.12
2019-04-21T11:10:04.554Z,32.79
2019-04-21T11:11:05.663Z,32.31
2019-04-21T11:12:04.409Z,32.21
2019-04-21T11:13:04.975Z,32.71
2019-04-21T11:14:04.421Z,33.39
2019-04-21T11:15:05.268Z,34.55
2019-04-21T11:16:05.494Z,34.74
2019-04-21T11:17:05.951Z,34.44
2019-04-21T11:18:04.410Z,33.48
2019-04-21T11:19:04.413Z,33.20
2019-04-21T11:20:04.650Z,34.16
2019-04-21T11:21:04.908Z,33.48
2019-04-21T11:22:05.109Z,31.94
2019-04-21T11:23:04.431Z,31.17
2019-04-21T11:24:04.389Z,31.56
2019-04-21T11:25:05.090Z,30.21
2019-04-21T11:26:04.482Z,29.14
2019-04-21T11:27:04.714Z,30.21
2019-04-21T11:28:05.126Z,30.11
2019-04-21T11:29:05.220Z,30.79
2019-04-21T11:30:05.365Z,32.43
2019-04-21T11:31:04.837Z,31.27
2019-04-21T11:32:05.205Z,30.49
2019-04-21T11:33:04.428Z,32.15
2019-04-21T11:34:05.139Z,33.68
2019-04-21T11:35:05.303Z,28.28
2019-04-21T11:36:04.420Z,25.57
2019-04-21T11:37:04.526Z,23.83
2019-04-21T11:38:12.095Z,24.50
2019-04-21T11:39:19.357Z,23.83
2019-04-21T11:40:10.521Z,24.40
2019-04-21T11:41:05.530Z,23.93
2019-04-21T11:42:05.797Z,24.88
2019-04-21T11:43:05.969Z,25.46
2019-04-21T11:44:05.031Z,25.95
2019-04-21T11:45:04.423Z,25.57
2019-04-21T11:46:04.639Z,25.28
2019-04-21T11:47:04.626Z,26.15
2019-04-21T11:48:04.425Z,23.75
2019-04-21T11:49:04.446Z,23.74
2019-04-21T11:50:05.343Z,23.93
2019-04-21T11:51:04.765Z,24.90
2019-04-21T11:52:04.904Z,24.79
2019-04-21T11:53:07.020Z,24.69
2019-04-21T11:54:04.638Z,24.13
2019-04-21T11:55:04.757Z,23.83
2019-04-21T11:56:04.861Z,24.90
2019-04-21T11:57:12.409Z,23.93
2019-04-21T11:58:05.563Z,24.71
2019-04-21T11:59:05.784Z,23.45
2019-04-21T12:00:05.967Z,24.32
2019-04-21T12:01:05.603Z,25.38
2019-04-21T12:02:05.572Z,23.93
2019-04-21T12:03:05.786Z,24.04
2019-04-21T12:04:05.838Z,23.85
2019-04-21T12:05:05.479Z,24.44
2019-04-21T12:06:05.777Z,25.29
2019-04-21T12:07:05.114Z,24.43
2019-04-21T12:08:16.238Z,24.03
2019-04-21T12:09:05.270Z,24.13
2019-04-21T12:10:05.695Z,23.83
2019-04-21T12:11:05.328Z,22.97
2019-04-21T12:12:05.348Z,21.72
2019-04-21T12:13:07.252Z,22.59
2019-04-21T12:14:05.799Z,23.75
2019-04-21T12:15:04.518Z,26.17
2019-04-21T12:16:05.219Z,26.15
2019-04-21T12:17:05.559Z,26.34
2019-04-21T12:18:05.909Z,26.92
2019-04-21T12:19:05.108Z,25.76
2019-04-21T12:20:04.548Z,25.79
2019-04-21T12:21:05.280Z,25.60
2019-04-21T12:22:11.351Z,26.95
2019-04-21T12:23:04.732Z,24.82
2019-04-21T12:24:04.550Z,26.18
2019-04-21T12:25:05.089Z,26.39
2019-04-21T12:26:05.114Z,25.90
2019-04-21T12:27:05.763Z,25.32
2019-04-21T12:28:05.823Z,25.90
2019-04-21T12:29:05.896Z,25.99
2019-04-21T12:30:05.902Z,25.42
2019-04-21T12:31:05.395Z,25.89
2019-04-21T12:32:05.634Z,25.61
2019-04-21T12:33:04.662Z,24.84
2019-04-21T12:34:05.767Z,24.07
2019-04-21T12:35:06.000Z,25.03
2019-04-21T12:36:06.049Z,25.42
2019-04-21T12:37:04.695Z,24.35
2019-04-21T12:38:04.775Z,24.84
2019-04-21T12:39:06.757Z,26.19
2019-04-21T12:40:04.617Z,26.29
2019-04-21T12:41:04.731Z,25.70
2019-04-21T12:42:04.810Z,25.90
2019-04-21T12:43:04.637Z,25.89
2019-04-21T12:44:04.726Z,26.09
2019-04-21T12:45:05.612Z,26.57
2019-04-21T12:46:04.645Z,23.50
2019-04-21T12:47:05.769Z,23.39
2019-04-21T12:48:06.052Z,24.07
2019-04-21T12:49:04.638Z,24.35
2019-04-21T12:50:04.670Z,24.08
2019-04-21T12:51:05.989Z,23.10
2019-04-21T12:52:05.891Z,23.29
2019-04-21T12:53:05.361Z,24.07
2019-04-21T12:54:05.855Z,24.65
2019-04-21T12:55:05.794Z,24.65
2019-04-21T12:56:05.416Z,25.79
2019-04-21T12:57:05.419Z,25.23
2019-04-21T12:58:05.536Z,24.74
2019-04-21T12:59:05.059Z,26.19
2019-04-21T13:00:04.861Z,27.62
2019-04-21T13:01:05.029Z,28.40
2019-04-21T13:02:04.748Z,26.86
2019-04-21T13:03:05.801Z,27.14
2019-04-21T13:04:05.817Z,26.86
2019-04-21T13:05:04.719Z,26.39
2019-04-21T13:06:05.526Z,26.39
2019-04-21T13:07:05.581Z,26.40
2019-04-21T13:08:04.758Z,25.34
2019-04-21T13:09:07.440Z,25.62
2019-04-21T13:10:06.343Z,25.24
2019-04-21T13:11:04.749Z,25.42
2019-04-21T13:12:04.915Z,24.66
2019-04-21T13:13:05.873Z,24.74
2019-04-21T13:14:06.040Z,24.74
2019-04-21T13:15:04.748Z,25.03
2019-04-21T13:16:05.354Z,24.55
2019-04-21T13:17:05.655Z,25.42
2019-04-21T13:18:04.805Z,24.85
2019-04-21T13:19:05.072Z,26.48
2019-04-21T13:20:05.326Z,26.29
2019-04-21T13:21:05.922Z,26.98
2019-04-21T13:22:05.839Z,26.40
2019-04-21T13:23:05.953Z,25.62
2019-04-21T13:24:05.230Z,26.39
2019-04-21T13:25:05.501Z,25.99
2019-04-21T13:26:06.132Z,25.34
2019-04-21T13:27:05.695Z,27.35
2019-04-21T13:28:05.006Z,26.77
2019-04-21T13:29:05.915Z,26.67
2019-04-21T13:30:06.234Z,26.78
2019-04-21T13:31:04.838Z,26.03
2019-04-21T13:32:05.506Z,26.31
2019-04-21T13:33:05.097Z,25.15
2019-04-21T13:34:06.043Z,25.35
2019-04-21T13:35:05.366Z,25.35
2019-04-21T13:36:05.074Z,25.35
2019-04-21T13:37:05.724Z,25.44
2019-04-21T13:38:04.849Z,25.25
2019-04-21T13:39:32.496Z,25.25
2019-04-21T13:40:25.192Z,25.44
2019-04-21T13:41:17.534Z,25.35
2019-04-21T13:42:13.227Z,25.05
2019-04-21T13:43:08.079Z,26.20
2019-04-21T13:44:05.218Z,25.72
2019-04-21T13:45:06.304Z,25.52
2019-04-21T13:46:05.886Z,25.62
2019-04-21T13:47:04.991Z,26.77
2019-04-21T13:48:06.456Z,27.35
2019-04-21T13:49:05.230Z,26.78
2019-04-21T13:50:06.720Z,27.17
2019-04-21T13:51:05.048Z,27.17
2019-04-21T13:52:04.939Z,27.06
2019-04-21T13:53:05.016Z,27.15
2019-04-21T13:54:04.915Z,26.10
2019-04-21T13:55:05.532Z,24.76
2019-04-21T13:56:04.930Z,24.86
2019-04-21T13:57:05.001Z,24.57
2019-04-21T13:58:06.254Z,24.48
2019-04-21T13:59:06.403Z,23.90
2019-04-21T14:00:05.728Z,23.60
2019-04-21T14:01:05.628Z,24.85
2019-04-21T14:02:04.978Z,24.56
2019-04-21T14:03:04.959Z,24.38
2019-04-21T14:04:05.279Z,24.01
2019-04-21T14:05:08.167Z,23.71
2019-04-21T14:06:06.507Z,23.42
2019-04-21T14:07:06.032Z,22.34
2019-04-21T14:08:05.134Z,22.74
2019-04-21T14:09:05.280Z,22.44
2019-04-21T14:10:08.173Z,23.32
2019-04-21T14:11:05.163Z,22.74
2019-04-21T14:12:05.421Z,22.54
2019-04-21T14:13:04.999Z,23.41
2019-04-21T14:14:06.103Z,22.64
2019-04-21T14:15:06.258Z,22.64
2019-04-21T14:16:06.164Z,23.90
2019-04-21T14:17:05.521Z,24.09
2019-04-21T14:18:05.032Z,22.16
2019-04-21T14:19:05.627Z,21.88
2019-04-21T14:20:05.031Z,22.83